sensor_id;sensor_type;location;lat;lon;timestamp;P1;durP1;ratioP1;P2;durP2;ratioP2
24995;SDS011;13016;52.162;21.034;2023-03-23T00:02:09;33.40;;;19.40;;
24995;SDS011;13016;52.162;21.034;2023-03-23T00:04:37;31.70;;;20.20;;
24995;SDS011;13016;52.162;21.034;2023-03-23T00:07:05;31.80;;;19.60;;
24995;SDS011;13016;52.162;21.034;2023-03-23T00:09:44;47.00;;;32.00;;
24995;SDS011;13016;52.162;21.034;2023-03-23T00:12:13;75.90;;;52.80;;
24995;SDS011;13016;52.162;21.034;2023-03-23T00:14:39;31.20;;;19.70;;
24995;SDS011;13016;52.162;21.034;2023-03-23T00:18:29;29.30;;;18.90;;
24995;SDS011;13016;52.162;21.034;2023-03-23T00:22:03;30.50;;;18.80;;
24995;SDS011;13016;52.162;21.034;2023-03-23T00:25:52;27.70;;;18.40;;
24995;SDS011;13016;52.162;21.034;2023-03-23T00:28:24;29.90;;;19.20;;
24995;SDS011;13016;52.162;21.034;2023-03-23T00:31:03;30.30;;;18.90;;
24995;SDS011;13016;52.162;21.034;2023-03-23T00:33:40;29.80;;;19.30;;
24995;SDS011;13016;52.162;21.034;2023-03-23T00:36:10;32.10;;;20.10;;
24995;SDS011;13016;52.162;21.034;2023-03-23T00:38:40;26.40;;;17.40;;
24995;SDS011;13016;52.162;21.034;2023-03-23T00:42:19;32.00;;;20.00;;
24995;SDS011;13016;52.162;21.034;2023-03-23T00:45:56;28.50;;;19.00;;
24995;SDS011;13016;52.162;21.034;2023-03-23T00:49:27;29.00;;;18.80;;
24995;SDS011;13016;52.162;21.034;2023-03-23T00:53:07;32.20;;;19.90;;
24995;SDS011;13016;52.162;21.034;2023-03-23T00:55:35;31.00;;;19.30;;
24995;SDS011;13016;52.162;21.034;2023-03-23T00:58:04;30.90;;;19.40;;
24995;SDS011;13016;52.162;21.034;2023-03-23T01:00:33;29.40;;;19.10;;
24995;SDS011;13016;52.162;21.034;2023-03-23T01:03:01;29.30;;;19.10;;
24995;SDS011;13016;52.162;21.034;2023-03-23T01:05:33;31.00;;;18.80;;
24995;SDS011;13016;52.162;21.034;2023-03-23T01:09:34;29.40;;;18.80;;
24995;SDS011;13016;52.162;21.034;2023-03-23T01:13:10;28.40;;;18.40;;
24995;SDS011;13016;52.162;21.034;2023-03-23T01:16:44;28.70;;;18.40;;
24995;SDS011;13016;52.162;21.034;2023-03-23T01:19:12;26.90;;;18.50;;
24995;SDS011;13016;52.162;21.034;2023-03-23T01:21:41;29.40;;;19.10;;
24995;SDS011;13016;52.162;21.034;2023-03-23T01:24:10;28.20;;;18.40;;
24995;SDS011;13016;52.162;21.034;2023-03-23T01:26:39;28.60;;;19.80;;
24995;SDS011;13016;52.162;21.034;2023-03-23T01:29:10;29.60;;;18.90;;
24995;SDS011;13016;52.162;21.034;2023-03-23T01:33:25;33.30;;;20.30;;
24995;SDS011;13016;52.162;21.034;2023-03-23T01:36:50;29.80;;;19.00;;
24995;SDS011;13016;52.162;21.034;2023-03-23T01:40:26;28.60;;;18.30;;
24995;SDS011;13016;52.162;21.034;2023-03-23T01:42:57;30.80;;;19.00;;
24995;SDS011;13016;52.162;21.034;2023-03-23T01:45:31;30.80;;;19.00;;
24995;SDS011;13016;52.162;21.034;2023-03-23T01:48:04;35.30;;;20.70;;
24995;SDS011;13016;52.162;21.034;2023-03-23T01:50:50;28.10;;;19.50;;
24995;SDS011;13016;52.162;21.034;2023-03-23T01:53:26;31.00;;;20.10;;
24995;SDS011;13016;52.162;21.034;2023-03-23T02:11:17;28.30;;;20.00;;
24995;SDS011;13016;52.162;21.034;2023-03-23T02:13:51;27.20;;;18.60;;
24995;SDS011;13016;52.162;21.034;2023-03-23T02:16:52;29.00;;;18.40;;
24995;SDS011;13016;52.162;21.034;2023-03-23T02:19:43;30.10;;;18.40;;
24995;SDS011;13016;52.162;21.034;2023-03-23T02:24:10;28.50;;;18.00;;
24995;SDS011;13016;52.162;21.034;2023-03-23T02:33:52;31.20;;;19.10;;
24995;SDS011;13016;52.162;21.034;2023-03-23T02:39:23;28.30;;;17.70;;
24995;SDS011;13016;52.162;21.034;2023-03-23T02:44:24;26.90;;;16.90;;
24995;SDS011;13016;52.162;21.034;2023-03-23T02:47:04;26.20;;;17.30;;
24995;SDS011;13016;52.162;21.034;2023-03-23T02:49:37;25.50;;;17.50;;
24995;SDS011;13016;52.162;21.034;2023-03-23T02:52:14;26.40;;;17.00;;
24995;SDS011;13016;52.162;21.034;2023-03-23T02:54:49;26.60;;;17.00;;
24995;SDS011;13016;52.162;21.034;2023-03-23T02:57:23;23.70;;;17.20;;
24995;SDS011;13016;52.162;21.034;2023-03-23T03:00:46;27.00;;;16.70;;
24995;SDS011;13016;52.162;21.034;2023-03-23T03:03:20;25.10;;;15.90;;
24995;SDS011;13016;52.162;21.034;2023-03-23T03:06:09;26.70;;;16.80;;
24995;SDS011;13016;52.162;21.034;2023-03-23T03:08:43;25.80;;;16.10;;
24995;SDS011;13016;52.162;21.034;2023-03-23T03:11:19;25.50;;;15.80;;
24995;SDS011;13016;52.162;21.034;2023-03-23T03:13:59;26.50;;;16.70;;
24995;SDS011;13016;52.162;21.034;2023-03-23T03:17:17;22.60;;;16.40;;
24995;SDS011;13016;52.162;21.034;2023-03-23T03:21:06;25.30;;;16.20;;
24995;SDS011;13016;52.162;21.034;2023-03-23T03:24:30;25.40;;;16.50;;
24995;SDS011;13016;52.162;21.034;2023-03-23T03:28:07;25.80;;;16.10;;
24995;SDS011;13016;52.162;21.034;2023-03-23T03:31:43;23.30;;;15.60;;
24995;SDS011;13016;52.162;21.034;2023-03-23T03:34:14;24.00;;;15.30;;
24995;SDS011;13016;52.162;21.034;2023-03-23T03:36:44;21.50;;;15.00;;
24995;SDS011;13016;52.162;21.034;2023-03-23T03:39:19;24.30;;;15.70;;
24995;SDS011;13016;52.162;21.034;2023-03-23T03:41:53;25.50;;;15.10;;
24995;SDS011;13016;52.162;21.034;2023-03-23T03:44:20;25.60;;;15.30;;
24995;SDS011;13016;52.162;21.034;2023-03-23T03:46:49;23.20;;;16.00;;
24995;SDS011;13016;52.162;21.034;2023-03-23T03:49:19;22.20;;;14.50;;
24995;SDS011;13016;52.162;21.034;2023-03-23T03:51:48;27.00;;;15.20;;
24995;SDS011;13016;52.162;21.034;2023-03-23T03:54:25;21.40;;;14.00;;
24995;SDS011;13016;52.162;21.034;2023-03-23T03:58:13;23.10;;;15.00;;
24995;SDS011;13016;52.162;21.034;2023-03-23T04:02:20;23.60;;;15.60;;
24995;SDS011;13016;52.162;21.034;2023-03-23T04:05:38;26.90;;;15.60;;
24995;SDS011;13016;52.162;21.034;2023-03-23T04:09:14;26.40;;;15.20;;
24995;SDS011;13016;52.162;21.034;2023-03-23T04:13:20;23.70;;;15.50;;
24995;SDS011;13016;52.162;21.034;2023-03-23T04:16:35;23.80;;;14.50;;
24995;SDS011;13016;52.162;21.034;2023-03-23T04:20:13;23.30;;;15.30;;
24995;SDS011;13016;52.162;21.034;2023-03-23T04:23:44;25.30;;;15.00;;
24995;SDS011;13016;52.162;21.034;2023-03-23T04:26:10;20.60;;;14.20;;
24995;SDS011;13016;52.162;21.034;2023-03-23T04:28:40;24.00;;;14.50;;
24995;SDS011;13016;52.162;21.034;2023-03-23T04:31:11;22.60;;;14.60;;
24995;SDS011;13016;52.162;21.034;2023-03-23T04:33:40;21.00;;;15.20;;
24995;SDS011;13016;52.162;21.034;2023-03-23T04:40:03;23.70;;;14.80;;
24995;SDS011;13016;52.162;21.034;2023-03-23T04:43:40;20.70;;;13.80;;
24995;SDS011;13016;52.162;21.034;2023-03-23T04:46:11;20.70;;;14.40;;
24995;SDS011;13016;52.162;21.034;2023-03-23T04:48:40;25.00;;;15.40;;
24995;SDS011;13016;52.162;21.034;2023-03-23T04:51:09;23.80;;;14.70;;
24995;SDS011;13016;52.162;21.034;2023-03-23T04:53:38;23.40;;;14.90;;
24995;SDS011;13016;52.162;21.034;2023-03-23T05:00:03;22.80;;;15.00;;
24995;SDS011;13016;52.162;21.034;2023-03-23T05:14:22;21.80;;;15.20;;
24995;SDS011;13016;52.162;21.034;2023-03-23T05:16:54;22.00;;;14.40;;
24995;SDS011;13016;52.162;21.034;2023-03-23T05:19:30;22.80;;;14.70;;
24995;SDS011;13016;52.162;21.034;2023-03-23T05:22:03;25.90;;;15.20;;
24995;SDS011;13016;52.162;21.034;2023-03-23T05:24:38;22.80;;;14.20;;
24995;SDS011;13016;52.162;21.034;2023-03-23T05:27:11;23.00;;;14.40;;
24995;SDS011;13016;52.162;21.034;2023-03-23T05:29:43;23.40;;;14.80;;
24995;SDS011;13016;52.162;21.034;2023-03-23T05:32:26;21.50;;;14.80;;
24995;SDS011;13016;52.162;21.034;2023-03-23T05:34:57;22.60;;;14.60;;
24995;SDS011;13016;52.162;21.034;2023-03-23T05:37:24;21.20;;;14.90;;
24995;SDS011;13016;52.162;21.034;2023-03-23T05:39:50;21.90;;;14.60;;
24995;SDS011;13016;52.162;21.034;2023-03-23T05:42:15;23.80;;;14.60;;
24995;SDS011;13016;52.162;21.034;2023-03-23T05:44:41;19.10;;;13.40;;
24995;SDS011;13016;52.162;21.034;2023-03-23T05:47:06;21.10;;;14.00;;
24995;SDS011;13016;52.162;21.034;2023-03-23T05:49:31;21.70;;;14.50;;
24995;SDS011;13016;52.162;21.034;2023-03-23T05:51:56;21.10;;;13.50;;
24995;SDS011;13016;52.162;21.034;2023-03-23T05:54:22;21.80;;;14.30;;
24995;SDS011;13016;52.162;21.034;2023-03-23T05:56:47;21.10;;;14.40;;
24995;SDS011;13016;52.162;21.034;2023-03-23T05:59:12;21.60;;;14.00;;
24995;SDS011;13016;52.162;21.034;2023-03-23T06:01:37;19.30;;;13.40;;
24995;SDS011;13016;52.162;21.034;2023-03-23T06:04:03;22.50;;;13.70;;
24995;SDS011;13016;52.162;21.034;2023-03-23T06:06:29;22.10;;;13.40;;
24995;SDS011;13016;52.162;21.034;2023-03-23T06:08:59;20.20;;;13.20;;
24995;SDS011;13016;52.162;21.034;2023-03-23T06:11:24;21.00;;;12.70;;
24995;SDS011;13016;52.162;21.034;2023-03-23T06:13:50;22.50;;;13.50;;
24995;SDS011;13016;52.162;21.034;2023-03-23T06:16:15;20.90;;;13.70;;
24995;SDS011;13016;52.162;21.034;2023-03-23T06:18:42;22.00;;;13.60;;
24995;SDS011;13016;52.162;21.034;2023-03-23T06:21:08;19.80;;;13.40;;
24995;SDS011;13016;52.162;21.034;2023-03-23T06:23:39;19.40;;;12.70;;
24995;SDS011;13016;52.162;21.034;2023-03-23T06:26:05;20.20;;;12.60;;
24995;SDS011;13016;52.162;21.034;2023-03-23T06:28:38;20.10;;;12.80;;
24995;SDS011;13016;52.162;21.034;2023-03-23T06:31:04;19.30;;;12.10;;
24995;SDS011;13016;52.162;21.034;2023-03-23T06:33:30;18.50;;;12.20;;
24995;SDS011;13016;52.162;21.034;2023-03-23T06:35:55;17.60;;;11.40;;
24995;SDS011;13016;52.162;21.034;2023-03-23T06:38:29;20.30;;;12.20;;
24995;SDS011;13016;52.162;21.034;2023-03-23T06:41:06;20.70;;;12.40;;
24995;SDS011;13016;52.162;21.034;2023-03-23T06:43:31;18.00;;;12.30;;
24995;SDS011;13016;52.162;21.034;2023-03-23T06:46:00;18.60;;;12.80;;
24995;SDS011;13016;52.162;21.034;2023-03-23T06:48:25;21.00;;;12.20;;
24995;SDS011;13016;52.162;21.034;2023-03-23T06:50:50;20.80;;;12.80;;
24995;SDS011;13016;52.162;21.034;2023-03-23T06:53:15;17.60;;;11.60;;
24995;SDS011;13016;52.162;21.034;2023-03-23T06:55:48;18.20;;;11.70;;
24995;SDS011;13016;52.162;21.034;2023-03-23T06:58:14;18.10;;;11.60;;
24995;SDS011;13016;52.162;21.034;2023-03-23T07:00:39;20.10;;;11.30;;
24995;SDS011;13016;52.162;21.034;2023-03-23T07:03:04;21.10;;;11.80;;
24995;SDS011;13016;52.162;21.034;2023-03-23T07:05:30;19.70;;;12.10;;
24995;SDS011;13016;52.162;21.034;2023-03-23T07:07:55;18.50;;;11.10;;
24995;SDS011;13016;52.162;21.034;2023-03-23T07:10:23;19.40;;;11.70;;
24995;SDS011;13016;52.162;21.034;2023-03-23T07:12:49;23.90;;;11.00;;
24995;SDS011;13016;52.162;21.034;2023-03-23T07:15:15;16.10;;;11.70;;
24995;SDS011;13016;52.162;21.034;2023-03-23T07:17:40;19.10;;;11.70;;
24995;SDS011;13016;52.162;21.034;2023-03-23T07:22:39;17.20;;;12.60;;
24995;SDS011;13016;52.162;21.034;2023-03-23T07:25:10;19.80;;;11.50;;
24995;SDS011;13016;52.162;21.034;2023-03-23T07:27:48;16.90;;;10.60;;
24995;SDS011;13016;52.162;21.034;2023-03-23T07:30:15;14.40;;;10.30;;
24995;SDS011;13016;52.162;21.034;2023-03-23T07:32:41;18.40;;;10.90;;
24995;SDS011;13016;52.162;21.034;2023-03-23T07:35:06;20.30;;;11.60;;
24995;SDS011;13016;52.162;21.034;2023-03-23T07:37:40;16.10;;;11.40;;
24995;SDS011;13016;52.162;21.034;2023-03-23T07:40:05;18.60;;;11.80;;
24995;SDS011;13016;52.162;21.034;2023-03-23T07:42:44;16.10;;;11.80;;
24995;SDS011;13016;52.162;21.034;2023-03-23T07:45:17;15.50;;;11.00;;
24995;SDS011;13016;52.162;21.034;2023-03-23T07:47:42;16.50;;;11.40;;
24995;SDS011;13016;52.162;21.034;2023-03-23T07:50:21;18.20;;;11.30;;
24995;SDS011;13016;52.162;21.034;2023-03-23T07:52:46;18.20;;;10.60;;
24995;SDS011;13016;52.162;21.034;2023-03-23T07:55:32;16.40;;;9.80;;
24995;SDS011;13016;52.162;21.034;2023-03-23T07:57:57;15.60;;;10.60;;
24995;SDS011;13016;52.162;21.034;2023-03-23T08:00:37;16.70;;;9.90;;
24995;SDS011;13016;52.162;21.034;2023-03-23T08:03:30;17.80;;;10.40;;
24995;SDS011;13016;52.162;21.034;2023-03-23T08:06:16;16.80;;;11.40;;
24995;SDS011;13016;52.162;21.034;2023-03-23T08:08:53;16.30;;;10.70;;
24995;SDS011;13016;52.162;21.034;2023-03-23T08:11:20;16.70;;;11.30;;
24995;SDS011;13016;52.162;21.034;2023-03-23T08:14:05;13.00;;;10.30;;
24995;SDS011;13016;52.162;21.034;2023-03-23T08:16:31;12.50;;;10.30;;
24995;SDS011;13016;52.162;21.034;2023-03-23T08:18:59;14.40;;;10.70;;
24995;SDS011;13016;52.162;21.034;2023-03-23T08:21:43;15.80;;;10.00;;
24995;SDS011;13016;52.162;21.034;2023-03-23T08:24:26;15.90;;;9.50;;
24995;SDS011;13016;52.162;21.034;2023-03-23T08:26:52;16.60;;;10.30;;
24995;SDS011;13016;52.162;21.034;2023-03-23T08:29:17;17.80;;;9.90;;
24995;SDS011;13016;52.162;21.034;2023-03-23T08:31:42;13.90;;;9.90;;
24995;SDS011;13016;52.162;21.034;2023-03-23T08:34:08;14.10;;;9.50;;
24995;SDS011;13016;52.162;21.034;2023-03-23T08:36:34;12.80;;;9.30;;
24995;SDS011;13016;52.162;21.034;2023-03-23T08:39:00;16.50;;;8.80;;
24995;SDS011;13016;52.162;21.034;2023-03-23T08:41:26;14.60;;;8.90;;
24995;SDS011;13016;52.162;21.034;2023-03-23T08:43:51;10.50;;;8.40;;
24995;SDS011;13016;52.162;21.034;2023-03-23T08:46:17;14.50;;;7.80;;
24995;SDS011;13016;52.162;21.034;2023-03-23T08:48:42;11.30;;;8.00;;
24995;SDS011;13016;52.162;21.034;2023-03-23T08:51:13;10.40;;;7.20;;
24995;SDS011;13016;52.162;21.034;2023-03-23T08:53:59;10.10;;;7.30;;
24995;SDS011;13016;52.162;21.034;2023-03-23T08:56:25;11.20;;;7.50;;
24995;SDS011;13016;52.162;21.034;2023-03-23T08:58:50;11.80;;;6.80;;
24995;SDS011;13016;52.162;21.034;2023-03-23T09:01:15;13.90;;;8.10;;
24995;SDS011;13016;52.162;21.034;2023-03-23T09:04:09;9.20;;;7.20;;
24995;SDS011;13016;52.162;21.034;2023-03-23T09:06:57;12.70;;;8.00;;
24995;SDS011;13016;52.162;21.034;2023-03-23T09:09:23;15.20;;;7.50;;
24995;SDS011;13016;52.162;21.034;2023-03-23T09:11:49;11.80;;;6.70;;
24995;SDS011;13016;52.162;21.034;2023-03-23T09:14:14;10.30;;;7.30;;
24995;SDS011;13016;52.162;21.034;2023-03-23T09:16:40;14.90;;;7.40;;
24995;SDS011;13016;52.162;21.034;2023-03-23T09:19:05;10.00;;;7.80;;
24995;SDS011;13016;52.162;21.034;2023-03-23T09:21:30;12.40;;;7.40;;
24995;SDS011;13016;52.162;21.034;2023-03-23T09:23:56;13.20;;;7.30;;
24995;SDS011;13016;52.162;21.034;2023-03-23T09:26:22;12.30;;;7.30;;
24995;SDS011;13016;52.162;21.034;2023-03-23T09:28:50;12.60;;;7.30;;
24995;SDS011;13016;52.162;21.034;2023-03-23T09:31:15;11.70;;;7.90;;
24995;SDS011;13016;52.162;21.034;2023-03-23T09:33:41;8.70;;;6.80;;
24995;SDS011;13016;52.162;21.034;2023-03-23T09:36:06;10.20;;;7.00;;
24995;SDS011;13016;52.162;21.034;2023-03-23T09:38:32;9.40;;;6.60;;
24995;SDS011;13016;52.162;21.034;2023-03-23T09:44:02;10.10;;;6.10;;
24995;SDS011;13016;52.162;21.034;2023-03-23T09:49:57;11.90;;;6.70;;
24995;SDS011;13016;52.162;21.034;2023-03-23T09:52:49;13.50;;;6.80;;
24995;SDS011;13016;52.162;21.034;2023-03-23T09:55:20;10.30;;;6.90;;
24995;SDS011;13016;52.162;21.034;2023-03-23T09:58:02;9.80;;;6.70;;
24995;SDS011;13016;52.162;21.034;2023-03-23T10:01:00;11.30;;;7.00;;
24995;SDS011;13016;52.162;21.034;2023-03-23T10:06:52;10.40;;;6.80;;
24995;SDS011;13016;52.162;21.034;2023-03-23T10:09:49;14.90;;;6.80;;
24995;SDS011;13016;52.162;21.034;2023-03-23T10:12:21;10.80;;;6.30;;
24995;SDS011;13016;52.162;21.034;2023-03-23T10:20:10;13.50;;;6.70;;
24995;SDS011;13016;52.162;21.034;2023-03-23T10:25:29;13.10;;;6.70;;
24995;SDS011;13016;52.162;21.034;2023-03-23T10:30:55;8.60;;;5.90;;
24995;SDS011;13016;52.162;21.034;2023-03-23T10:33:45;8.30;;;5.70;;
24995;SDS011;13016;52.162;21.034;2023-03-23T10:36:50;8.60;;;6.30;;
24995;SDS011;13016;52.162;21.034;2023-03-23T10:39:23;11.80;;;5.70;;
24995;SDS011;13016;52.162;21.034;2023-03-23T10:41:51;8.10;;;5.60;;
24995;SDS011;13016;52.162;21.034;2023-03-23T10:44:18;8.40;;;5.40;;
24995;SDS011;13016;52.162;21.034;2023-03-23T10:47:02;9.00;;;5.80;;
24995;SDS011;13016;52.162;21.034;2023-03-23T10:49:43;9.40;;;5.40;;
24995;SDS011;13016;52.162;21.034;2023-03-23T10:52:38;9.00;;;5.00;;
24995;SDS011;13016;52.162;21.034;2023-03-23T10:57:41;8.10;;;5.10;;
24995;SDS011;13016;52.162;21.034;2023-03-23T11:00:23;8.60;;;5.20;;
24995;SDS011;13016;52.162;21.034;2023-03-23T11:08:32;9.90;;;5.60;;
24995;SDS011;13016;52.162;21.034;2023-03-23T11:11:38;7.20;;;4.80;;
24995;SDS011;13016;52.162;21.034;2023-03-23T11:14:16;6.80;;;4.30;;
24995;SDS011;13016;52.162;21.034;2023-03-23T11:17:02;7.20;;;4.90;;
24995;SDS011;13016;52.162;21.034;2023-03-23T11:19:35;9.00;;;4.60;;
24995;SDS011;13016;52.162;21.034;2023-03-23T11:24:28;6.40;;;3.30;;
24995;SDS011;13016;52.162;21.034;2023-03-23T11:26:53;4.50;;;3.00;;
24995;SDS011;13016;52.162;21.034;2023-03-23T11:29:48;4.50;;;2.90;;
24995;SDS011;13016;52.162;21.034;2023-03-23T11:32:24;5.00;;;3.30;;
24995;SDS011;13016;52.162;21.034;2023-03-23T11:35:29;4.10;;;3.00;;
24995;SDS011;13016;52.162;21.034;2023-03-23T11:38:18;6.90;;;3.60;;
24995;SDS011;13016;52.162;21.034;2023-03-23T11:40:50;5.50;;;3.40;;
24995;SDS011;13016;52.162;21.034;2023-03-23T11:43:20;3.60;;;2.80;;
24995;SDS011;13016;52.162;21.034;2023-03-23T11:46:34;5.80;;;3.10;;
24995;SDS011;13016;52.162;21.034;2023-03-23T11:48:57;5.60;;;3.10;;
24995;SDS011;13016;52.162;21.034;2023-03-23T11:51:27;6.90;;;3.20;;
24995;SDS011;13016;52.162;21.034;2023-03-23T11:57:26;5.80;;;3.60;;
24995;SDS011;13016;52.162;21.034;2023-03-23T11:59:56;6.80;;;3.50;;
24995;SDS011;13016;52.162;21.034;2023-03-23T12:05:52;6.10;;;3.20;;
24995;SDS011;13016;52.162;21.034;2023-03-23T12:08:47;4.40;;;3.10;;
24995;SDS011;13016;52.162;21.034;2023-03-23T12:14:27;4.00;;;3.20;;
24995;SDS011;13016;52.162;21.034;2023-03-23T12:17:17;4.60;;;3.10;;
24995;SDS011;13016;52.162;21.034;2023-03-23T12:20:01;4.10;;;3.10;;
24995;SDS011;13016;52.162;21.034;2023-03-23T12:26:31;6.70;;;3.20;;
24995;SDS011;13016;52.162;21.034;2023-03-23T12:41:17;5.00;;;3.90;;
24995;SDS011;13016;52.162;21.034;2023-03-23T12:44:06;7.70;;;3.50;;
24995;SDS011;13016;52.162;21.034;2023-03-23T12:49:55;6.70;;;3.80;;
24995;SDS011;13016;52.162;21.034;2023-03-23T12:52:27;8.70;;;3.90;;
24995;SDS011;13016;52.162;21.034;2023-03-23T12:55:01;6.60;;;4.10;;
24995;SDS011;13016;52.162;21.034;2023-03-23T13:03:02;12.70;;;4.70;;
24995;SDS011;13016;52.162;21.034;2023-03-23T13:06:04;9.20;;;3.90;;
24995;SDS011;13016;52.162;21.034;2023-03-23T13:09:19;5.80;;;3.50;;
24995;SDS011;13016;52.162;21.034;2023-03-23T13:12:16;6.30;;;3.60;;
24995;SDS011;13016;52.162;21.034;2023-03-23T13:18:11;5.20;;;4.00;;
24995;SDS011;13016;52.162;21.034;2023-03-23T13:23:45;5.90;;;3.80;;
24995;SDS011;13016;52.162;21.034;2023-03-23T13:26:19;6.30;;;3.90;;
24995;SDS011;13016;52.162;21.034;2023-03-23T13:28:50;11.60;;;3.80;;
24995;SDS011;13016;52.162;21.034;2023-03-23T13:31:23;9.60;;;4.40;;
24995;SDS011;13016;52.162;21.034;2023-03-23T13:33:58;5.70;;;3.80;;
24995;SDS011;13016;52.162;21.034;2023-03-23T13:42:47;8.20;;;3.80;;
24995;SDS011;13016;52.162;21.034;2023-03-23T13:45:21;6.80;;;4.20;;
24995;SDS011;13016;52.162;21.034;2023-03-23T13:48:22;4.30;;;2.70;;
24995;SDS011;13016;52.162;21.034;2023-03-23T13:53:29;5.50;;;2.30;;
24995;SDS011;13016;52.162;21.034;2023-03-23T13:56:06;5.20;;;2.80;;
24995;SDS011;13016;52.162;21.034;2023-03-23T13:58:43;8.90;;;2.90;;
24995;SDS011;13016;52.162;21.034;2023-03-23T14:01:37;3.40;;;2.60;;
24995;SDS011;13016;52.162;21.034;2023-03-23T14:04:06;3.70;;;2.50;;
24995;SDS011;13016;52.162;21.034;2023-03-23T14:06:37;7.10;;;2.80;;
24995;SDS011;13016;52.162;21.034;2023-03-23T14:11:54;3.70;;;2.60;;
24995;SDS011;13016;52.162;21.034;2023-03-23T14:14:28;5.80;;;3.00;;
24995;SDS011;13016;52.162;21.034;2023-03-23T14:17:21;5.30;;;3.10;;
24995;SDS011;13016;52.162;21.034;2023-03-23T14:19:52;5.80;;;2.90;;
24995;SDS011;13016;52.162;21.034;2023-03-23T14:22:24;4.40;;;3.10;;
24995;SDS011;13016;52.162;21.034;2023-03-23T14:24:52;6.60;;;2.80;;
24995;SDS011;13016;52.162;21.034;2023-03-23T14:29:57;3.60;;;2.80;;
24995;SDS011;13016;52.162;21.034;2023-03-23T14:32:27;4.70;;;3.30;;
24995;SDS011;13016;52.162;21.034;2023-03-23T14:34:57;5.40;;;3.40;;
24995;SDS011;13016;52.162;21.034;2023-03-23T14:37:23;4.10;;;3.10;;
24995;SDS011;13016;52.162;21.034;2023-03-23T14:40:12;5.30;;;3.00;;
24995;SDS011;13016;52.162;21.034;2023-03-23T14:42:43;4.70;;;3.10;;
24995;SDS011;13016;52.162;21.034;2023-03-23T14:45:12;4.70;;;3.10;;
24995;SDS011;13016;52.162;21.034;2023-03-23T14:47:46;4.60;;;3.10;;
24995;SDS011;13016;52.162;21.034;2023-03-23T14:53:03;4.60;;;3.00;;
24995;SDS011;13016;52.162;21.034;2023-03-23T14:55:53;4.90;;;3.20;;
24995;SDS011;13016;52.162;21.034;2023-03-23T14:58:20;4.90;;;3.50;;
24995;SDS011;13016;52.162;21.034;2023-03-23T15:01:09;8.90;;;3.90;;
24995;SDS011;13016;52.162;21.034;2023-03-23T15:03:36;10.10;;;3.90;;
24995;SDS011;13016;52.162;21.034;2023-03-23T15:06:15;6.50;;;4.00;;
24995;SDS011;13016;52.162;21.034;2023-03-23T15:08:47;5.80;;;4.00;;
24995;SDS011;13016;52.162;21.034;2023-03-23T15:11:22;8.00;;;3.80;;
24995;SDS011;13016;52.162;21.034;2023-03-23T15:14:02;8.80;;;5.80;;
24995;SDS011;13016;52.162;21.034;2023-03-23T15:16:34;25.50;;;21.00;;
24995;SDS011;13016;52.162;21.034;2023-03-23T15:19:05;9.20;;;4.60;;
24995;SDS011;13016;52.162;21.034;2023-03-23T15:27:15;6.60;;;4.10;;
24995;SDS011;13016;52.162;21.034;2023-03-23T15:32:22;5.90;;;4.20;;
24995;SDS011;13016;52.162;21.034;2023-03-23T15:34:50;7.10;;;4.10;;
24995;SDS011;13016;52.162;21.034;2023-03-23T15:37:32;6.70;;;4.30;;
24995;SDS011;13016;52.162;21.034;2023-03-23T15:40:03;6.90;;;4.40;;
24995;SDS011;13016;52.162;21.034;2023-03-23T15:42:32;6.70;;;4.40;;
24995;SDS011;13016;52.162;21.034;2023-03-23T15:45:05;8.80;;;4.70;;
24995;SDS011;13016;52.162;21.034;2023-03-23T15:47:47;6.30;;;4.20;;
24995;SDS011;13016;52.162;21.034;2023-03-23T15:50:34;9.10;;;4.60;;
24995;SDS011;13016;52.162;21.034;2023-03-23T15:53:01;8.80;;;4.80;;
24995;SDS011;13016;52.162;21.034;2023-03-23T15:55:42;5.90;;;4.40;;
24995;SDS011;13016;52.162;21.034;2023-03-23T15:58:10;5.30;;;4.50;;
24995;SDS011;13016;52.162;21.034;2023-03-23T16:00:37;6.50;;;4.70;;
24995;SDS011;13016;52.162;21.034;2023-03-23T16:03:11;6.70;;;3.90;;
24995;SDS011;13016;52.162;21.034;2023-03-23T16:06:02;6.80;;;4.70;;
24995;SDS011;13016;52.162;21.034;2023-03-23T16:08:31;7.50;;;4.40;;
24995;SDS011;13016;52.162;21.034;2023-03-23T16:10:57;8.20;;;4.90;;
24995;SDS011;13016;52.162;21.034;2023-03-23T16:13:31;6.60;;;4.70;;
24995;SDS011;13016;52.162;21.034;2023-03-23T16:15:56;5.90;;;4.30;;
24995;SDS011;13016;52.162;21.034;2023-03-23T16:18:21;6.30;;;4.40;;
24995;SDS011;13016;52.162;21.034;2023-03-23T16:20:47;6.90;;;4.70;;
24995;SDS011;13016;52.162;21.034;2023-03-23T16:23:34;6.90;;;4.60;;
24995;SDS011;13016;52.162;21.034;2023-03-23T16:26:08;6.40;;;4.40;;
24995;SDS011;13016;52.162;21.034;2023-03-23T16:28:54;9.00;;;4.10;;
24995;SDS011;13016;52.162;21.034;2023-03-23T16:31:20;6.30;;;4.40;;
24995;SDS011;13016;52.162;21.034;2023-03-23T16:33:45;6.00;;;4.20;;
24995;SDS011;13016;52.162;21.034;2023-03-23T16:36:11;11.80;;;4.60;;
24995;SDS011;13016;52.162;21.034;2023-03-23T16:38:37;7.00;;;4.50;;
24995;SDS011;13016;52.162;21.034;2023-03-23T16:41:07;7.50;;;4.60;;
24995;SDS011;13016;52.162;21.034;2023-03-23T16:43:35;12.80;;;6.70;;
24995;SDS011;13016;52.162;21.034;2023-03-23T16:46:01;6.10;;;4.20;;
24995;SDS011;13016;52.162;21.034;2023-03-23T16:48:26;6.60;;;4.80;;
24995;SDS011;13016;52.162;21.034;2023-03-23T16:50:52;5.40;;;3.70;;
24995;SDS011;13016;52.162;21.034;2023-03-23T16:53:18;6.00;;;4.70;;
24995;SDS011;13016;52.162;21.034;2023-03-23T16:55:43;5.10;;;3.60;;
24995;SDS011;13016;52.162;21.034;2023-03-23T16:58:28;7.50;;;4.20;;
24995;SDS011;13016;52.162;21.034;2023-03-23T17:00:54;8.50;;;4.30;;
24995;SDS011;13016;52.162;21.034;2023-03-23T17:03:20;8.40;;;4.30;;
24995;SDS011;13016;52.162;21.034;2023-03-23T17:05:49;9.50;;;4.30;;
24995;SDS011;13016;52.162;21.034;2023-03-23T17:08:16;9.70;;;4.00;;
24995;SDS011;13016;52.162;21.034;2023-03-23T17:10:43;10.10;;;4.20;;
24995;SDS011;13016;52.162;21.034;2023-03-23T17:13:09;8.10;;;4.10;;
24995;SDS011;13016;52.162;21.034;2023-03-23T17:15:35;8.70;;;4.40;;
24995;SDS011;13016;52.162;21.034;2023-03-23T17:18:02;9.50;;;4.60;;
24995;SDS011;13016;52.162;21.034;2023-03-23T17:20:29;7.20;;;4.20;;
24995;SDS011;13016;52.162;21.034;2023-03-23T17:22:59;7.30;;;4.70;;
24995;SDS011;13016;52.162;21.034;2023-03-23T17:25:28;7.40;;;4.80;;
24995;SDS011;13016;52.162;21.034;2023-03-23T17:28:01;7.40;;;4.20;;
24995;SDS011;13016;52.162;21.034;2023-03-23T17:30:33;7.20;;;4.50;;
24995;SDS011;13016;52.162;21.034;2023-03-23T17:33:24;7.30;;;4.30;;
24995;SDS011;13016;52.162;21.034;2023-03-23T17:35:57;7.10;;;4.60;;
24995;SDS011;13016;52.162;21.034;2023-03-23T17:38:36;6.80;;;4.90;;
24995;SDS011;13016;52.162;21.034;2023-03-23T17:41:05;6.50;;;4.70;;
24995;SDS011;13016;52.162;21.034;2023-03-23T17:43:39;8.70;;;5.20;;
24995;SDS011;13016;52.162;21.034;2023-03-23T17:46:16;10.10;;;5.20;;
24995;SDS011;13016;52.162;21.034;2023-03-23T17:49:01;9.60;;;5.10;;
24995;SDS011;13016;52.162;21.034;2023-03-23T17:51:27;8.50;;;4.90;;
24995;SDS011;13016;52.162;21.034;2023-03-23T17:54:12;8.20;;;4.50;;
24995;SDS011;13016;52.162;21.034;2023-03-23T17:56:41;6.80;;;4.30;;